sensor_id;sensor_type;location;lat;lon;timestamp;P1;durP1;ratioP1;P2;durP2;ratioP2
29452;SDS011;16424;50.956;5.320;2023-03-11T00:00:40;7.50;;;2.65;;
29452;SDS011;16424;50.956;5.320;2023-03-11T00:03:08;12.48;;;3.42;;
29452;SDS011;16424;50.956;5.320;2023-03-11T00:05:37;15.23;;;3.85;;
29452;SDS011;16424;50.956;5.320;2023-03-11T00:08:05;16.60;;;3.00;;
29452;SDS011;16424;50.956;5.320;2023-03-11T00:10:34;7.18;;;2.95;;
29452;SDS011;16424;50.956;5.320;2023-03-11T00:13:05;7.47;;;3.28;;
29452;SDS011;16424;50.956;5.320;2023-03-11T00:15:31;13.80;;;3.00;;
29452;SDS011;16424;50.956;5.320;2023-03-11T00:17:58;10.80;;;3.00;;
29452;SDS011;16424;50.956;5.320;2023-03-11T00:20:25;15.32;;;3.05;;
29452;SDS011;16424;50.956;5.320;2023-03-11T00:22:53;7.43;;;2.20;;
29452;SDS011;16424;50.956;5.320;2023-03-11T00:25:19;9.52;;;2.80;;
29452;SDS011;16424;50.956;5.320;2023-03-11T00:27:46;11.20;;;2.83;;
29452;SDS011;16424;50.956;5.320;2023-03-11T00:30:12;13.70;;;3.35;;
29452;SDS011;16424;50.956;5.320;2023-03-11T00:32:39;16.73;;;3.88;;
29452;SDS011;16424;50.956;5.320;2023-03-11T00:35:05;10.57;;;4.18;;
29452;SDS011;16424;50.956;5.320;2023-03-11T00:37:31;16.20;;;4.07;;
29452;SDS011;16424;50.956;5.320;2023-03-11T00:39:58;11.40;;;4.38;;
29452;SDS011;16424;50.956;5.320;2023-03-11T00:42:24;9.45;;;3.03;;
29452;SDS011;16424;50.956;5.320;2023-03-11T00:44:49;13.02;;;3.50;;
29452;SDS011;16424;50.956;5.320;2023-03-11T00:47:15;14.45;;;4.10;;
29452;SDS011;16424;50.956;5.320;2023-03-11T00:49:41;19.50;;;3.85;;
29452;SDS011;16424;50.956;5.320;2023-03-11T00:52:07;14.30;;;3.63;;
29452;SDS011;16424;50.956;5.320;2023-03-11T00:54:33;12.90;;;3.75;;
29452;SDS011;16424;50.956;5.320;2023-03-11T00:56:58;15.40;;;4.75;;
29452;SDS011;16424;50.956;5.320;2023-03-11T00:59:24;14.90;;;3.78;;
29452;SDS011;16424;50.956;5.320;2023-03-11T01:01:50;14.98;;;3.80;;
29452;SDS011;16424;50.956;5.320;2023-03-11T01:04:15;21.70;;;3.85;;
29452;SDS011;16424;50.956;5.320;2023-03-11T01:06:41;8.32;;;3.03;;
29452;SDS011;16424;50.956;5.320;2023-03-11T01:09:07;17.33;;;4.53;;
29452;SDS011;16424;50.956;5.320;2023-03-11T01:11:32;10.57;;;3.20;;
29452;SDS011;16424;50.956;5.320;2023-03-11T01:13:58;12.13;;;3.10;;
29452;SDS011;16424;50.956;5.320;2023-03-11T01:16:24;37.53;;;5.53;;
29452;SDS011;16424;50.956;5.320;2023-03-11T01:18:49;9.60;;;3.40;;
29452;SDS011;16424;50.956;5.320;2023-03-11T01:21:15;10.10;;;3.78;;
29452;SDS011;16424;50.956;5.320;2023-03-11T01:23:41;12.77;;;3.80;;
29452;SDS011;16424;50.956;5.320;2023-03-11T01:26:07;11.48;;;3.92;;
29452;SDS011;16424;50.956;5.320;2023-03-11T01:28:32;15.40;;;5.55;;
29452;SDS011;16424;50.956;5.320;2023-03-11T01:30:58;15.63;;;3.80;;
29452;SDS011;16424;50.956;5.320;2023-03-11T01:33:24;16.75;;;3.92;;
29452;SDS011;16424;50.956;5.320;2023-03-11T01:35:50;12.57;;;4.03;;
29452;SDS011;16424;50.956;5.320;2023-03-11T01:38:15;17.38;;;4.20;;
29452;SDS011;16424;50.956;5.320;2023-03-11T01:40:42;9.02;;;3.35;;
29452;SDS011;16424;50.956;5.320;2023-03-11T01:48:26;9.98;;;3.10;;
29452;SDS011;16424;50.956;5.320;2023-03-11T01:50:54;16.42;;;4.95;;
29452;SDS011;16424;50.956;5.320;2023-03-11T01:53:21;17.45;;;4.63;;
29452;SDS011;16424;50.956;5.320;2023-03-11T01:55:48;9.55;;;3.35;;
29452;SDS011;16424;50.956;5.320;2023-03-11T01:58:15;12.32;;;4.13;;
29452;SDS011;16424;50.956;5.320;2023-03-11T02:00:44;15.55;;;3.65;;
29452;SDS011;16424;50.956;5.320;2023-03-11T02:03:14;12.55;;;3.55;;
29452;SDS011;16424;50.956;5.320;2023-03-11T02:05:51;13.48;;;3.70;;
29452;SDS011;16424;50.956;5.320;2023-03-11T02:08:19;12.40;;;4.47;;
29452;SDS011;16424;50.956;5.320;2023-03-11T02:10:45;20.98;;;5.22;;
29452;SDS011;16424;50.956;5.320;2023-03-11T02:13:12;11.40;;;3.60;;
29452;SDS011;16424;50.956;5.320;2023-03-11T02:15:39;14.52;;;3.70;;
29452;SDS011;16424;50.956;5.320;2023-03-11T02:18:05;11.68;;;3.70;;
29452;SDS011;16424;50.956;5.320;2023-03-11T02:20:35;16.65;;;4.22;;
29452;SDS011;16424;50.956;5.320;2023-03-11T02:23:07;20.90;;;4.30;;
29452;SDS011;16424;50.956;5.320;2023-03-11T02:28:09;13.95;;;4.05;;
29452;SDS011;16424;50.956;5.320;2023-03-11T02:30:38;17.90;;;5.63;;
29452;SDS011;16424;50.956;5.320;2023-03-11T02:33:05;16.05;;;5.18;;
29452;SDS011;16424;50.956;5.320;2023-03-11T02:35:32;11.85;;;5.18;;
29452;SDS011;16424;50.956;5.320;2023-03-11T02:37:58;31.23;;;5.95;;
29452;SDS011;16424;50.956;5.320;2023-03-11T02:43:01;10.43;;;4.30;;
29452;SDS011;16424;50.956;5.320;2023-03-11T02:45:31;11.45;;;4.72;;
29452;SDS011;16424;50.956;5.320;2023-03-11T02:47:58;25.80;;;4.88;;
29452;SDS011;16424;50.956;5.320;2023-03-11T02:50:24;22.17;;;6.45;;
29452;SDS011;16424;50.956;5.320;2023-03-11T02:52:52;20.15;;;6.55;;
29452;SDS011;16424;50.956;5.320;2023-03-11T02:55:18;16.38;;;4.75;;
29452;SDS011;16424;50.956;5.320;2023-03-11T02:57:47;14.77;;;4.55;;
29452;SDS011;16424;50.956;5.320;2023-03-11T03:00:14;17.48;;;5.25;;
29452;SDS011;16424;50.956;5.320;2023-03-11T03:02:41;19.70;;;4.72;;
29452;SDS011;16424;50.956;5.320;2023-03-11T03:05:08;14.80;;;4.50;;
29452;SDS011;16424;50.956;5.320;2023-03-11T03:07:35;11.45;;;4.88;;
29452;SDS011;16424;50.956;5.320;2023-03-11T03:10:01;12.38;;;4.90;;
29452;SDS011;16424;50.956;5.320;2023-03-11T03:12:28;11.05;;;4.97;;
29452;SDS011;16424;50.956;5.320;2023-03-11T03:14:53;16.13;;;5.35;;
29452;SDS011;16424;50.956;5.320;2023-03-11T03:17:19;13.82;;;5.07;;
29452;SDS011;16424;50.956;5.320;2023-03-11T03:19:45;12.65;;;4.82;;
29452;SDS011;16424;50.956;5.320;2023-03-11T03:22:10;11.98;;;4.13;;
29452;SDS011;16424;50.956;5.320;2023-03-11T03:24:36;14.63;;;4.82;;
29452;SDS011;16424;50.956;5.320;2023-03-11T03:27:01;15.38;;;5.30;;
29452;SDS011;16424;50.956;5.320;2023-03-11T03:29:27;13.98;;;5.15;;
29452;SDS011;16424;50.956;5.320;2023-03-11T03:31:53;15.85;;;4.80;;
29452;SDS011;16424;50.956;5.320;2023-03-11T03:34:18;13.40;;;4.43;;
29452;SDS011;16424;50.956;5.320;2023-03-11T03:36:44;15.05;;;4.88;;
29452;SDS011;16424;50.956;5.320;2023-03-11T03:39:10;10.30;;;4.47;;
29452;SDS011;16424;50.956;5.320;2023-03-11T03:41:35;10.05;;;4.82;;
29452;SDS011;16424;50.956;5.320;2023-03-11T03:44:01;17.35;;;4.57;;
29452;SDS011;16424;50.956;5.320;2023-03-11T03:46:28;17.95;;;5.95;;
29452;SDS011;16424;50.956;5.320;2023-03-11T03:48:54;9.85;;;4.78;;
29452;SDS011;16424;50.956;5.320;2023-03-11T03:51:20;17.58;;;4.35;;
29452;SDS011;16424;50.956;5.320;2023-03-11T03:53:45;11.52;;;4.32;;
29452;SDS011;16424;50.956;5.320;2023-03-11T03:56:16;9.73;;;4.40;;
29452;SDS011;16424;50.956;5.320;2023-03-11T03:58:42;16.05;;;5.78;;
29452;SDS011;16424;50.956;5.320;2023-03-11T04:01:08;11.25;;;4.75;;
29452;SDS011;16424;50.956;5.320;2023-03-11T04:03:35;11.13;;;4.28;;
29452;SDS011;16424;50.956;5.320;2023-03-11T04:08:42;11.23;;;5.07;;
29452;SDS011;16424;50.956;5.320;2023-03-11T04:11:08;18.45;;;5.47;;
29452;SDS011;16424;50.956;5.320;2023-03-11T04:13:34;16.10;;;5.95;;
29452;SDS011;16424;50.956;5.320;2023-03-11T04:16:01;15.82;;;5.35;;
29452;SDS011;16424;50.956;5.320;2023-03-11T04:18:28;21.80;;;6.10;;
29452;SDS011;16424;50.956;5.320;2023-03-11T04:20:54;17.00;;;6.13;;
29452;SDS011;16424;50.956;5.320;2023-03-11T04:23:19;14.95;;;5.65;;
29452;SDS011;16424;50.956;5.320;2023-03-11T04:25:45;12.18;;;4.90;;
29452;SDS011;16424;50.956;5.320;2023-03-11T04:28:11;14.48;;;4.97;;
29452;SDS011;16424;50.956;5.320;2023-03-11T04:30:37;17.27;;;5.13;;
29452;SDS011;16424;50.956;5.320;2023-03-11T04:33:04;9.55;;;5.15;;
29452;SDS011;16424;50.956;5.320;2023-03-11T04:35:29;18.55;;;6.22;;
29452;SDS011;16424;50.956;5.320;2023-03-11T04:37:55;16.90;;;5.50;;
29452;SDS011;16424;50.956;5.320;2023-03-11T04:40:21;16.85;;;5.45;;
29452;SDS011;16424;50.956;5.320;2023-03-11T04:42:47;16.27;;;5.53;;
29452;SDS011;16424;50.956;5.320;2023-03-11T04:45:12;20.17;;;6.63;;
29452;SDS011;16424;50.956;5.320;2023-03-11T04:47:38;23.27;;;7.47;;
29452;SDS011;16424;50.956;5.320;2023-03-11T04:50:04;11.20;;;4.53;;
29452;SDS011;16424;50.956;5.320;2023-03-11T04:52:30;10.65;;;5.53;;
29452;SDS011;16424;50.956;5.320;2023-03-11T04:54:55;26.50;;;6.15;;
29452;SDS011;16424;50.956;5.320;2023-03-11T04:57:21;14.35;;;5.40;;
29452;SDS011;16424;50.956;5.320;2023-03-11T04:59:47;11.65;;;5.75;;
29452;SDS011;16424;50.956;5.320;2023-03-11T05:02:12;17.58;;;6.65;;
29452;SDS011;16424;50.956;5.320;2023-03-11T05:04:38;13.52;;;5.22;;
29452;SDS011;16424;50.956;5.320;2023-03-11T05:07:04;13.38;;;5.63;;
29452;SDS011;16424;50.956;5.320;2023-03-11T05:09:29;15.52;;;5.18;;
29452;SDS011;16424;50.956;5.320;2023-03-11T05:11:55;11.70;;;6.32;;
29452;SDS011;16424;50.956;5.320;2023-03-11T05:14:21;18.27;;;5.70;;
29452;SDS011;16424;50.956;5.320;2023-03-11T05:16:46;18.30;;;5.93;;
29452;SDS011;16424;50.956;5.320;2023-03-11T05:19:12;10.55;;;5.32;;
29452;SDS011;16424;50.956;5.320;2023-03-11T05:21:56;12.35;;;6.03;;
29452;SDS011;16424;50.956;5.320;2023-03-11T05:24:22;11.63;;;5.32;;
29452;SDS011;16424;50.956;5.320;2023-03-11T05:26:50;14.85;;;5.57;;
29452;SDS011;16424;50.956;5.320;2023-03-11T05:29:16;15.23;;;5.85;;
29452;SDS011;16424;50.956;5.320;2023-03-11T05:31:41;16.48;;;6.05;;
29452;SDS011;16424;50.956;5.320;2023-03-11T05:34:07;15.48;;;6.03;;
29452;SDS011;16424;50.956;5.320;2023-03-11T05:36:33;24.60;;;6.63;;
29452;SDS011;16424;50.956;5.320;2023-03-11T05:38:58;14.25;;;5.80;;
29452;SDS011;16424;50.956;5.320;2023-03-11T05:41:24;16.85;;;6.78;;
29452;SDS011;16424;50.956;5.320;2023-03-11T05:43:50;12.43;;;5.82;;
29452;SDS011;16424;50.956;5.320;2023-03-11T05:46:15;10.63;;;5.82;;
29452;SDS011;16424;50.956;5.320;2023-03-11T05:48:41;12.85;;;5.93;;
29452;SDS011;16424;50.956;5.320;2023-03-11T05:51:10;15.90;;;5.80;;
29452;SDS011;16424;50.956;5.320;2023-03-11T05:53:36;11.25;;;5.95;;
29452;SDS011;16424;50.956;5.320;2023-03-11T05:56:02;14.68;;;6.05;;
29452;SDS011;16424;50.956;5.320;2023-03-11T05:58:29;18.77;;;7.20;;
29452;SDS011;16424;50.956;5.320;2023-03-11T06:00:56;17.25;;;7.15;;
29452;SDS011;16424;50.956;5.320;2023-03-11T06:03:24;24.10;;;7.65;;
29452;SDS011;16424;50.956;5.320;2023-03-11T06:05:50;12.00;;;7.13;;
29452;SDS011;16424;50.956;5.320;2023-03-11T06:08:16;16.60;;;7.20;;
29452;SDS011;16424;50.956;5.320;2023-03-11T06:10:43;19.85;;;8.02;;
29452;SDS011;16424;50.956;5.320;2023-03-11T06:13:09;16.13;;;7.95;;
29452;SDS011;16424;50.956;5.320;2023-03-11T06:15:35;16.30;;;6.97;;
29452;SDS011;16424;50.956;5.320;2023-03-11T06:18:02;19.20;;;6.93;;
29452;SDS011;16424;50.956;5.320;2023-03-11T06:20:28;14.23;;;7.10;;
29452;SDS011;16424;50.956;5.320;2023-03-11T06:22:55;14.05;;;7.05;;
29452;SDS011;16424;50.956;5.320;2023-03-11T06:25:21;18.08;;;7.50;;
29452;SDS011;16424;50.956;5.320;2023-03-11T06:27:47;20.65;;;7.57;;
29452;SDS011;16424;50.956;5.320;2023-03-11T06:30:15;13.23;;;7.30;;
29452;SDS011;16424;50.956;5.320;2023-03-11T06:32:45;19.83;;;7.65;;
29452;SDS011;16424;50.956;5.320;2023-03-11T06:35:11;13.48;;;8.00;;
29452;SDS011;16424;50.956;5.320;2023-03-11T06:37:37;18.50;;;7.32;;
29452;SDS011;16424;50.956;5.320;2023-03-11T06:40:04;18.02;;;8.07;;
29452;SDS011;16424;50.956;5.320;2023-03-11T06:42:31;15.65;;;6.78;;
29452;SDS011;16424;50.956;5.320;2023-03-11T06:44:58;14.18;;;7.40;;
29452;SDS011;16424;50.956;5.320;2023-03-11T06:47:23;15.73;;;7.32;;
29452;SDS011;16424;50.956;5.320;2023-03-11T06:49:50;17.23;;;7.25;;
29452;SDS011;16424;50.956;5.320;2023-03-11T06:52:16;22.48;;;8.18;;
29452;SDS011;16424;50.956;5.320;2023-03-11T06:54:42;18.90;;;7.72;;
29452;SDS011;16424;50.956;5.320;2023-03-11T06:57:08;16.52;;;7.80;;
29452;SDS011;16424;50.956;5.320;2023-03-11T06:59:34;22.75;;;7.65;;
29452;SDS011;16424;50.956;5.320;2023-03-11T07:02:01;28.80;;;9.73;;
29452;SDS011;16424;50.956;5.320;2023-03-11T07:04:28;27.48;;;11.73;;
29452;SDS011;16424;50.956;5.320;2023-03-11T07:06:54;31.33;;;12.52;;
29452;SDS011;16424;50.956;5.320;2023-03-11T07:09:20;23.83;;;9.93;;
29452;SDS011;16424;50.956;5.320;2023-03-11T07:11:49;51.80;;;22.10;;
29452;SDS011;16424;50.956;5.320;2023-03-11T07:14:15;39.03;;;19.00;;
29452;SDS011;16424;50.956;5.320;2023-03-11T07:16:41;38.00;;;15.85;;
29452;SDS011;16424;50.956;5.320;2023-03-11T07:19:08;42.75;;;16.23;;
29452;SDS011;16424;50.956;5.320;2023-03-11T07:21:33;28.58;;;13.63;;
29452;SDS011;16424;50.956;5.320;2023-03-11T07:24:00;27.05;;;12.30;;
29452;SDS011;16424;50.956;5.320;2023-03-11T07:26:27;21.98;;;10.05;;
29452;SDS011;16424;50.956;5.320;2023-03-11T07:28:54;20.55;;;9.77;;
29452;SDS011;16424;50.956;5.320;2023-03-11T07:31:22;17.92;;;7.20;;
29452;SDS011;16424;50.956;5.320;2023-03-11T07:33:49;11.55;;;5.35;;
29452;SDS011;16424;50.956;5.320;2023-03-11T07:36:16;18.52;;;7.93;;
29452;SDS011;16424;50.956;5.320;2023-03-11T07:38:43;21.10;;;6.88;;
29452;SDS011;16424;50.956;5.320;2023-03-11T07:41:10;6.70;;;3.17;;
29452;SDS011;16424;50.956;5.320;2023-03-11T07:43:36;8.95;;;3.58;;
29452;SDS011;16424;50.956;5.320;2023-03-11T07:48:36;10.13;;;3.63;;
29452;SDS011;16424;50.956;5.320;2023-03-11T07:51:04;7.97;;;3.30;;
29452;SDS011;16424;50.956;5.320;2023-03-11T07:53:33;9.07;;;3.83;;
29452;SDS011;16424;50.956;5.320;2023-03-11T07:55:59;7.18;;;3.13;;
29452;SDS011;16424;50.956;5.320;2023-03-11T07:58:26;6.60;;;3.05;;
29452;SDS011;16424;50.956;5.320;2023-03-11T08:00:52;12.82;;;4.43;;
29452;SDS011;16424;50.956;5.320;2023-03-11T08:03:19;8.38;;;2.78;;
29452;SDS011;16424;50.956;5.320;2023-03-11T08:05:45;12.10;;;3.80;;
29452;SDS011;16424;50.956;5.320;2023-03-11T08:08:10;9.45;;;3.45;;
29452;SDS011;16424;50.956;5.320;2023-03-11T08:10:36;6.03;;;3.40;;
29452;SDS011;16424;50.956;5.320;2023-03-11T08:13:03;10.00;;;4.00;;
29452;SDS011;16424;50.956;5.320;2023-03-11T08:15:28;7.93;;;3.75;;
29452;SDS011;16424;50.956;5.320;2023-03-11T08:17:54;10.75;;;3.45;;
29452;SDS011;16424;50.956;5.320;2023-03-11T08:20:20;6.40;;;2.97;;
29452;SDS011;16424;50.956;5.320;2023-03-11T08:22:45;7.68;;;3.20;;
29452;SDS011;16424;50.956;5.320;2023-03-11T08:25:11;7.72;;;3.30;;
29452;SDS011;16424;50.956;5.320;2023-03-11T08:27:37;10.93;;;3.30;;
29452;SDS011;16424;50.956;5.320;2023-03-11T08:30:03;6.13;;;3.15;;
29452;SDS011;16424;50.956;5.320;2023-03-11T08:32:30;11.05;;;3.30;;
29452;SDS011;16424;50.956;5.320;2023-03-11T08:34:56;9.30;;;3.38;;
29452;SDS011;16424;50.956;5.320;2023-03-11T08:37:22;9.88;;;3.50;;
29452;SDS011;16424;50.956;5.320;2023-03-11T08:39:48;10.20;;;3.47;;
29452;SDS011;16424;50.956;5.320;2023-03-11T08:42:14;12.48;;;3.53;;
29452;SDS011;16424;50.956;5.320;2023-03-11T08:44:40;8.70;;;3.03;;
29452;SDS011;16424;50.956;5.320;2023-03-11T08:47:07;9.90;;;3.78;;
29452;SDS011;16424;50.956;5.320;2023-03-11T08:49:33;8.68;;;3.40;;
29452;SDS011;16424;50.956;5.320;2023-03-11T08:52:00;8.35;;;2.97;;
29452;SDS011;16424;50.956;5.320;2023-03-11T08:54:25;10.85;;;3.03;;
29452;SDS011;16424;50.956;5.320;2023-03-11T08:56:51;11.05;;;3.78;;
29452;SDS011;16424;50.956;5.320;2023-03-11T08:59:17;9.88;;;3.63;;
29452;SDS011;16424;50.956;5.320;2023-03-11T09:01:43;7.50;;;4.20;;
29452;SDS011;16424;50.956;5.320;2023-03-11T09:04:08;9.70;;;3.85;;
29452;SDS011;16424;50.956;5.320;2023-03-11T09:06:34;7.20;;;3.13;;
29452;SDS011;16424;50.956;5.320;2023-03-11T09:09:00;9.15;;;2.80;;
29452;SDS011;16424;50.956;5.320;2023-03-11T09:11:25;8.07;;;3.55;;
29452;SDS011;16424;50.956;5.320;2023-03-11T09:13:51;9.93;;;3.70;;
29452;SDS011;16424;50.956;5.320;2023-03-11T09:16:19;8.32;;;3.05;;
29452;SDS011;16424;50.956;5.320;2023-03-11T09:18:46;8.23;;;2.45;;
29452;SDS011;16424;50.956;5.320;2023-03-11T09:21:11;9.40;;;2.28;;
29452;SDS011;16424;50.956;5.320;2023-03-11T09:23:37;4.63;;;2.70;;
29452;SDS011;16424;50.956;5.320;2023-03-11T09:26:03;6.82;;;2.63;;
29452;SDS011;16424;50.956;5.320;2023-03-11T09:28:29;7.38;;;2.30;;
29452;SDS011;16424;50.956;5.320;2023-03-11T09:30:55;11.18;;;3.20;;
29452;SDS011;16424;50.956;5.320;2023-03-11T09:33:21;5.28;;;2.50;;
29452;SDS011;16424;50.956;5.320;2023-03-11T09:35:47;10.48;;;2.83;;
29452;SDS011;16424;50.956;5.320;2023-03-11T09:38:13;5.85;;;2.20;;
29452;SDS011;16424;50.956;5.320;2023-03-11T09:40:57;6.22;;;1.48;;
29452;SDS011;16424;50.956;5.320;2023-03-11T09:46:13;5.38;;;1.55;;
29452;SDS011;16424;50.956;5.320;2023-03-11T09:48:43;3.38;;;0.90;;
29452;SDS011;16424;50.956;5.320;2023-03-11T09:51:21;6.82;;;1.40;;
29452;SDS011;16424;50.956;5.320;2023-03-11T09:54:07;5.10;;;1.42;;
29452;SDS011;16424;50.956;5.320;2023-03-11T09:56:35;3.22;;;0.98;;
29452;SDS011;16424;50.956;5.320;2023-03-11T10:01:41;3.35;;;1.35;;
29452;SDS011;16424;50.956;5.320;2023-03-11T10:07:18;7.00;;;1.50;;
29452;SDS011;16424;50.956;5.320;2023-03-11T10:09:51;5.75;;;1.23;;
29452;SDS011;16424;50.956;5.320;2023-03-11T10:15:18;7.57;;;1.48;;
29452;SDS011;16424;50.956;5.320;2023-03-11T10:26:12;3.95;;;1.05;;
29452;SDS011;16424;50.956;5.320;2023-03-11T10:28:58;8.10;;;1.30;;
29452;SDS011;16424;50.956;5.320;2023-03-11T10:34:14;6.53;;;1.40;;
29452;SDS011;16424;50.956;5.320;2023-03-11T10:39:22;4.57;;;1.40;;
29452;SDS011;16424;50.956;5.320;2023-03-11T10:41:53;5.22;;;1.40;;
29452;SDS011;16424;50.956;5.320;2023-03-11T10:44:24;9.05;;;1.27;;
29452;SDS011;16424;50.956;5.320;2023-03-11T10:46:56;10.35;;;1.55;;
29452;SDS011;16424;50.956;5.320;2023-03-11T10:49:22;8.98;;;1.35;;
29452;SDS011;16424;50.956;5.320;2023-03-11T10:51:49;11.85;;;1.70;;
29452;SDS011;16424;50.956;5.320;2023-03-11T10:56:59;5.93;;;1.00;;
29452;SDS011;16424;50.956;5.320;2023-03-11T10:59:47;3.85;;;1.05;;
29452;SDS011;16424;50.956;5.320;2023-03-11T11:02:21;6.78;;;1.33;;
29452;SDS011;16424;50.956;5.320;2023-03-11T11:04:47;7.95;;;1.40;;
29452;SDS011;16424;50.956;5.320;2023-03-11T11:12:36;2.03;;;1.10;;
29452;SDS011;16424;50.956;5.320;2023-03-11T11:18:17;4.30;;;1.40;;
29452;SDS011;16424;50.956;5.320;2023-03-11T11:21:06;6.43;;;1.40;;
29452;SDS011;16424;50.956;5.320;2023-03-11T11:23:42;5.18;;;2.05;;
29452;SDS011;16424;50.956;5.320;2023-03-11T11:26:19;3.13;;;1.30;;
29452;SDS011;16424;50.956;5.320;2023-03-11T11:29:10;11.10;;;1.88;;
29452;SDS011;16424;50.956;5.320;2023-03-11T11:31:40;4.93;;;1.33;;
29452;SDS011;16424;50.956;5.320;2023-03-11T11:34:28;2.78;;;1.13;;
29452;SDS011;16424;50.956;5.320;2023-03-11T11:36:58;1.80;;;1.00;;
29452;SDS011;16424;50.956;5.320;2023-03-11T11:39:27;6.75;;;1.58;;
29452;SDS011;16424;50.956;5.320;2023-03-11T11:42:03;5.55;;;1.10;;
29452;SDS011;16424;50.956;5.320;2023-03-11T11:44:32;7.78;;;1.50;;
29452;SDS011;16424;50.956;5.320;2023-03-11T11:49:42;5.63;;;1.25;;
29452;SDS011;16424;50.956;5.320;2023-03-11T11:52:15;10.25;;;1.75;;
29452;SDS011;16424;50.956;5.320;2023-03-11T11:55:03;5.88;;;1.15;;
29452;SDS011;16424;50.956;5.320;2023-03-11T11:57:32;2.15;;;1.35;;
29452;SDS011;16424;50.956;5.320;2023-03-11T11:59:58;6.53;;;1.20;;
29452;SDS011;16424;50.956;5.320;2023-03-11T12:02:46;18.30;;;1.50;;
29452;SDS011;16424;50.956;5.320;2023-03-11T12:05:27;4.30;;;1.58;;
29452;SDS011;16424;50.956;5.320;2023-03-11T12:08:09;2.90;;;0.98;;
29452;SDS011;16424;50.956;5.320;2023-03-11T12:11:05;5.43;;;1.30;;
29452;SDS011;16424;50.956;5.320;2023-03-11T12:13:39;4.97;;;1.15;;
29452;SDS011;16424;50.956;5.320;2023-03-11T12:30:27;8.20;;;2.08;;
29452;SDS011;16424;50.956;5.320;2023-03-11T12:33:02;5.55;;;1.65;;
29452;SDS011;16424;50.956;5.320;2023-03-11T12:35:30;5.35;;;1.48;;
29452;SDS011;16424;50.956;5.320;2023-03-11T12:43:22;3.47;;;1.27;;
29452;SDS011;16424;50.956;5.320;2023-03-11T12:45:54;3.35;;;1.23;;
29452;SDS011;16424;50.956;5.320;2023-03-11T12:53:52;3.45;;;1.40;;
29452;SDS011;16424;50.956;5.320;2023-03-11T13:05:11;5.47;;;1.27;;
29452;SDS011;16424;50.956;5.320;2023-03-11T13:07:50;7.82;;;1.08;;
29452;SDS011;16424;50.956;5.320;2023-03-11T13:10:43;6.35;;;1.55;;
29452;SDS011;16424;50.956;5.320;2023-03-11T13:15:55;2.92;;;1.10;;
29452;SDS011;16424;50.956;5.320;2023-03-11T13:18:22;4.10;;;1.10;;
29452;SDS011;16424;50.956;5.320;2023-03-11T13:20:59;7.90;;;1.50;;
29452;SDS011;16424;50.956;5.320;2023-03-11T13:23:29;3.33;;;1.25;;
29452;SDS011;16424;50.956;5.320;2023-03-11T13:42:01;6.03;;;1.45;;
29452;SDS011;16424;50.956;5.320;2023-03-11T13:44:35;2.72;;;1.08;;
29452;SDS011;16424;50.956;5.320;2023-03-11T13:47:02;8.77;;;1.40;;
29452;SDS011;16424;50.956;5.320;2023-03-11T13:49:37;3.67;;;1.10;;
29452;SDS011;16424;50.956;5.320;2023-03-11T13:52:08;5.63;;;1.10;;
29452;SDS011;16424;50.956;5.320;2023-03-11T13:57:47;2.50;;;1.00;;
29452;SDS011;16424;50.956;5.320;2023-03-11T14:03:24;3.33;;;1.60;;
29452;SDS011;16424;50.956;5.320;2023-03-11T14:05:44;5.72;;;1.10;;
29452;SDS011;16424;50.956;5.320;2023-03-11T14:13:23;3.70;;;1.10;;
29452;SDS011;16424;50.956;5.320;2023-03-11T14:15:58;3.47;;;1.17;;
29452;SDS011;16424;50.956;5.320;2023-03-11T14:18:34;3.35;;;1.00;;
29452;SDS011;16424;50.956;5.320;2023-03-11T14:21:02;2.88;;;0.95;;
29452;SDS011;16424;50.956;5.320;2023-03-11T14:23:38;7.18;;;1.13;;
29452;SDS011;16424;50.956;5.320;2023-03-11T14:26:07;5.60;;;1.10;;
29452;SDS011;16424;50.956;5.320;2023-03-11T14:28:37;8.88;;;1.80;;
29452;SDS011;16424;50.956;5.320;2023-03-11T14:31:06;3.28;;;1.00;;
29452;SDS011;16424;50.956;5.320;2023-03-11T14:33:52;4.50;;;1.42;;
29452;SDS011;16424;50.956;5.320;2023-03-11T14:36:22;4.57;;;1.00;;
29452;SDS011;16424;50.956;5.320;2023-03-11T14:38:48;6.05;;;1.58;;
29452;SDS011;16424;50.956;5.320;2023-03-11T14:41:13;5.85;;;1.30;;
29452;SDS011;16424;50.956;5.320;2023-03-11T14:43:40;1.55;;;0.88;;
29452;SDS011;16424;50.956;5.320;2023-03-11T14:46:18;2.60;;;1.33;;
29452;SDS011;16424;50.956;5.320;2023-03-11T14:51:14;5.47;;;1.38;;
29452;SDS011;16424;50.956;5.320;2023-03-11T14:53:44;2.85;;;0.95;;
29452;SDS011;16424;50.956;5.320;2023-03-11T14:56:26;3.60;;;0.98;;
29452;SDS011;16424;50.956;5.320;2023-03-11T14:59:04;4.13;;;1.02;;
29452;SDS011;16424;50.956;5.320;2023-03-11T15:01:36;2.80;;;1.20;;
29452;SDS011;16424;50.956;5.320;2023-03-11T15:04:12;2.58;;;0.98;;
29452;SDS011;16424;50.956;5.320;2023-03-11T15:06:42;2.90;;;1.27;;
29452;SDS011;16424;50.956;5.320;2023-03-11T15:09:12;4.53;;;1.10;;
29452;SDS011;16424;50.956;5.320;2023-03-11T15:11:54;3.80;;;1.42;;
29452;SDS011;16424;50.956;5.320;2023-03-11T15:16:52;3.83;;;1.30;;
29452;SDS011;16424;50.956;5.320;2023-03-11T15:21:56;2.75;;;0.80;;
29452;SDS011;16424;50.956;5.320;2023-03-11T15:24:47;4.80;;;1.35;;
29452;SDS011;16424;50.956;5.320;2023-03-11T15:29:54;3.13;;;1.00;;
29452;SDS011;16424;50.956;5.320;2023-03-11T15:35:02;3.50;;;1.40;;
29452;SDS011;16424;50.956;5.320;2023-03-11T15:37:31;3.67;;;1.17;;
29452;SDS011;16424;50.956;5.320;2023-03-11T15:40:05;3.65;;;1.15;;
29452;SDS011;16424;50.956;5.320;2023-03-11T15:45:40;6.40;;;1.40;;
29452;SDS011;16424;50.956;5.320;2023-03-11T15:48:10;4.20;;;1.35;;
29452;SDS011;16424;50.956;5.320;2023-03-11T15:50:44;4.53;;;1.08;;
29452;SDS011;16424;50.956;5.320;2023-03-11T15:53:14;2.80;;;0.98;;
29452;SDS011;16424;50.956;5.320;2023-03-11T15:55:40;4.28;;;1.45;;
29452;SDS011;16424;50.956;5.320;2023-03-11T15:58:06;4.78;;;1.05;;
29452;SDS011;16424;50.956;5.320;2023-03-11T16:00:34;3.10;;;1.05;;
29452;SDS011;16424;50.956;5.320;2023-03-11T16:03:00;9.20;;;1.20;;
29452;SDS011;16424;50.956;5.320;2023-03-11T16:05:27;1.88;;;1.05;;
29452;SDS011;16424;50.956;5.320;2023-03-11T16:07:53;2.72;;;1.02;;
29452;SDS011;16424;50.956;5.320;2023-03-11T16:10:20;1.33;;;0.98;;
29452;SDS011;16424;50.956;5.320;2023-03-11T16:12:48;4.78;;;1.30;;
29452;SDS011;16424;50.956;5.320;2023-03-11T16:15:17;4.43;;;1.42;;
29452;SDS011;16424;50.956;5.320;2023-03-11T16:18:04;3.10;;;1.67;;
29452;SDS011;16424;50.956;5.320;2023-03-11T16:20:35;2.65;;;1.25;;
29452;SDS011;16424;50.956;5.320;2023-03-11T16:23:01;2.65;;;1.58;;
29452;SDS011;16424;50.956;5.320;2023-03-11T16:25:35;6.32;;;1.65;;
29452;SDS011;16424;50.956;5.320;2023-03-11T16:28:02;2.67;;;0.80;;
29452;SDS011;16424;50.956;5.320;2023-03-11T16:30:30;3.53;;;0.80;;
29452;SDS011;16424;50.956;5.320;2023-03-11T16:32:57;3.85;;;1.40;;
29452;SDS011;16424;50.956;5.320;2023-03-11T16:35:22;4.38;;;1.00;;
29452;SDS011;16424;50.956;5.320;2023-03-11T16:37:48;5.00;;;0.93;;
29452;SDS011;16424;50.956;5.320;2023-03-11T16:40:17;2.58;;;0.90;;
29452;SDS011;16424;50.956;5.320;2023-03-11T16:42:45;4.47;;;1.00;;
29452;SDS011;16424;50.956;5.320;2023-03-11T16:45:12;6.65;;;1.10;;
29452;SDS011;16424;50.956;5.320;2023-03-11T16:47:39;2.35;;;1.60;;
29452;SDS011;16424;50.956;5.320;2023-03-11T16:50:05;4.65;;;1.00;;
29452;SDS011;16424;50.956;5.320;2023-03-11T16:52:32;4.43;;;0.80;;
29452;SDS011;16424;50.956;5.320;2023-03-11T16:54:57;5.47;;;1.40;;
29452;SDS011;16424;50.956;5.320;2023-03-11T16:57:23;3.92;;;1.00;;
29452;SDS011;16424;50.956;5.320;2023-03-11T16:59:49;6.65;;;1.20;;
29452;SDS011;16424;50.956;5.320;2023-03-11T17:02:16;5.15;;;1.15;;